Time;durP1;ratioP1;P1;durP2;ratioP2;P2;SDS_P1;SDS_P2;PMS_P1;PMS_P2;Temp;Humidity;BMP_temperature;BMP_pressure;BME280_temperature;BME280_humidity;BME280_pressure;Samples;Min_cycle;Max_cycle;Signal;HPM_P1;HPM_P2
2022/01/04 00:02:04;;;;;;;5.50;0.70;;;9.30;99.90;;;;;;5034690;28;20029;-71
2022/01/04 00:04:29;;;;;;;1.00;0.60;;;9.40;99.90;;;;;;5045247;28;20045;-72
2022/01/04 00:06:57;;;;;;;2.47;0.73;;;9.40;99.90;;;;;;5042626;28;20037;-72
2022/01/04 00:09:23;;;;;;;3.35;1.10;;;9.50;99.90;;;;;;5041069;28;20036;-72
2022/01/04 00:14:17;;;;;;;1.50;0.60;;;9.60;99.90;;;;;;5047616;28;20057;-72
2022/01/04 00:16:44;;;;;;;3.53;0.80;;;9.60;99.90;;;;;;5045746;28;20051;-73
2022/01/04 00:19:10;;;;;;;3.38;0.63;;;9.70;99.90;;;;;;5030778;28;20032;-72
2022/01/04 00:21:37;;;;;;;1.80;0.70;;;9.70;99.90;;;;;;5048184;28;20071;-71
2022/01/04 00:24:04;;;;;;;6.03;0.60;;;9.80;99.90;;;;;;5046530;28;20112;-73
2022/01/04 00:26:30;;;;;;;0.80;0.30;;;9.80;99.90;;;;;;5032150;28;20104;-73
2022/01/04 00:28:56;;;;;;;2.67;0.50;;;10.00;99.90;;;;;;5038634;28;20040;-72
2022/01/04 00:31:22;;;;;;;2.08;0.65;;;10.00;99.90;;;;;;5044780;28;20028;-72
2022/01/04 00:33:48;;;;;;;0.93;0.50;;;10.20;99.90;;;;;;5044747;28;20477;-73
2022/01/04 00:36:14;;;;;;;3.33;0.50;;;10.10;99.90;;;;;;5046717;28;20037;-72
2022/01/04 00:38:39;;;;;;;2.47;0.60;;;10.00;99.90;;;;;;5048877;28;20032;-73
2022/01/04 00:41:05;;;;;;;0.90;0.40;;;10.00;99.90;;;;;;5043214;28;20030;-73
2022/01/04 00:43:31;;;;;;;3.25;0.60;;;10.00;99.90;;;;;;5037775;28;20078;-73
2022/01/04 00:45:56;;;;;;;2.33;0.70;;;9.90;99.90;;;;;;5045420;28;20090;-73
2022/01/04 00:50:48;;;;;;;2.00;0.73;;;9.90;99.90;;;;;;5029628;28;20458;-73
2022/01/04 00:53:14;;;;;;;4.30;0.65;;;9.90;99.90;;;;;;5040910;28;20025;-73
2022/01/04 00:55:40;;;;;;;1.50;0.60;;;9.90;99.90;;;;;;5040944;28;20401;-74
2022/01/04 00:58:06;;;;;;;2.05;0.60;;;10.00;99.90;;;;;;5037062;28;20464;-73
2022/01/04 01:00:32;;;;;;;4.97;0.90;;;10.10;99.90;;;;;;5027180;28;20033;-73
2022/01/04 01:02:58;;;;;;;1.75;0.50;;;10.10;99.90;;;;;;5048394;28;20035;-73
2022/01/04 01:05:25;;;;;;;1.38;0.73;;;10.20;99.90;;;;;;5048197;28;20041;-74
2022/01/04 01:07:52;;;;;;;2.08;0.60;;;10.10;99.90;;;;;;5047951;28;20032;-73
2022/01/04 01:12:53;;;;;;;1.95;0.60;;;10.20;99.90;;;;;;5045733;28;20573;-73
2022/01/04 01:15:20;;;;;;;2.75;0.60;;;10.30;99.90;;;;;;5030478;28;20451;-73
2022/01/04 01:17:46;;;;;;;1.38;0.50;;;10.20;99.90;;;;;;5039138;28;20129;-74
2022/01/04 01:20:13;;;;;;;1.17;0.63;;;10.30;99.90;;;;;;5037910;28;20117;-72
2022/01/04 01:22:40;;;;;;;2.30;0.70;;;10.30;99.90;;;;;;5038819;28;20017;-73
2022/01/04 01:25:08;;;;;;;2.85;0.60;;;10.20;99.90;;;;;;5029502;28;20481;-73
2022/01/04 01:27:34;;;;;;;3.25;0.75;;;10.20;99.90;;;;;;5046367;28;20459;-73
2022/01/04 01:30:00;;;;;;;2.78;0.60;;;10.20;99.90;;;;;;5040481;28;20105;-73
2022/01/04 01:32:25;;;;;;;1.42;0.70;;;10.20;99.90;;;;;;5040578;28;20108;-73
2022/01/04 01:34:51;;;;;;;3.20;0.73;;;10.20;99.90;;;;;;5047120;28;20111;-72
2022/01/04 01:37:17;;;;;;;3.17;0.70;;;10.20;99.90;;;;;;5039763;28;20390;-73
2022/01/04 01:39:43;;;;;;;1.50;0.50;;;10.10;99.90;;;;;;5043964;28;20041;-74
2022/01/04 01:42:09;;;;;;;2.83;0.93;;;10.00;99.90;;;;;;5045485;28;20025;-74
2022/01/04 01:44:35;;;;;;;1.77;0.77;;;10.00;99.90;;;;;;5046088;28;20043;-72
2022/01/04 01:47:01;;;;;;;2.85;0.73;;;10.00;99.90;;;;;;5043232;28;20024;-75
2022/01/04 01:49:27;;;;;;;3.42;1.10;;;10.00;99.90;;;;;;5049064;28;20025;-73
2022/01/04 01:51:54;;;;;;;2.47;0.90;;;10.00;99.90;;;;;;5034991;28;20425;-70
2022/01/04 01:54:20;;;;;;;2.00;0.88;;;10.00;99.90;;;;;;5048012;28;20123;-73
2022/01/04 01:56:46;;;;;;;3.72;0.95;;;10.00;99.90;;;;;;5024170;28;20036;-74
2022/01/04 01:59:15;;;;;;;3.13;0.82;;;10.10;99.90;;;;;;5051235;28;20104;-72
2022/01/04 02:01:41;;;;;;;3.55;0.88;;;10.00;99.90;;;;;;5050472;28;20107;-72
2022/01/04 02:04:07;;;;;;;2.88;0.82;;;10.00;99.90;;;;;;5051463;28;20104;-73
2022/01/04 02:06:33;;;;;;;1.63;1.10;;;10.00;99.90;;;;;;5046148;28;20037;-73
2022/01/04 02:09:00;;;;;;;3.03;1.35;;;10.00;99.90;;;;;;5042066;28;20021;-72
2022/01/04 02:11:29;;;;;;;2.13;0.80;;;10.00;99.90;;;;;;5042305;28;20021;-72
2022/01/04 02:13:59;;;;;;;3.65;1.20;;;10.00;99.90;;;;;;5035362;28;20133;-74
2022/01/04 02:16:26;;;;;;;2.80;1.20;;;10.00;99.90;;;;;;5023006;28;20061;-73
2022/01/04 02:18:58;;;;;;;2.97;1.10;;;9.90;99.90;;;;;;5050314;28;20533;-73
2022/01/04 02:21:24;;;;;;;1.33;0.90;;;9.90;99.90;;;;;;5038816;28;20105;-73
2022/01/04 02:23:49;;;;;;;3.83;1.05;;;9.90;99.90;;;;;;5035452;28;20104;-72
2022/01/04 02:26:15;;;;;;;5.32;1.10;;;10.00;99.90;;;;;;5044919;28;20029;-73
2022/01/04 02:28:42;;;;;;;3.42;1.15;;;10.10;99.90;;;;;;5039959;28;20025;-73
2022/01/04 02:31:08;;;;;;;2.53;1.40;;;10.00;99.90;;;;;;5038947;28;20026;-72
2022/01/04 02:33:34;;;;;;;5.30;1.48;;;10.00;99.90;;;;;;5044216;28;20374;-70
2022/01/04 02:35:59;;;;;;;3.05;1.13;;;10.00;99.90;;;;;;5049931;28;20656;-72
2022/01/04 02:38:25;;;;;;;3.55;1.40;;;10.10;99.90;;;;;;5047491;28;20489;-72
2022/01/04 02:40:51;;;;;;;3.92;1.42;;;10.20;99.90;;;;;;5036917;28;20025;-73
2022/01/04 02:43:16;;;;;;;2.78;1.50;;;10.20;99.90;;;;;;5014813;28;20076;-72
2022/01/04 02:45:42;;;;;;;2.88;1.05;;;10.20;99.90;;;;;;5036350;28;20032;-74
2022/01/04 02:48:08;;;;;;;3.25;1.48;;;10.30;99.90;;;;;;5041177;28;20477;-73
2022/01/04 02:50:33;;;;;;;2.55;1.50;;;10.30;99.90;;;;;;5046787;28;20494;-73
2022/01/04 02:52:59;;;;;;;3.03;1.27;;;10.20;99.90;;;;;;5025665;28;20038;-72
2022/01/04 02:55:25;;;;;;;2.88;1.30;;;10.30;99.90;;;;;;5033792;28;20037;-73
2022/01/04 02:57:51;;;;;;;2.40;1.45;;;10.30;99.90;;;;;;5033127;28;20029;-74
2022/01/04 03:00:17;;;;;;;4.72;1.70;;;10.20;99.90;;;;;;5033831;28;20029;-73
2022/01/04 03:02:43;;;;;;;3.45;1.20;;;10.30;99.90;;;;;;5043285;28;20549;-73
2022/01/04 03:05:10;;;;;;;3.78;1.50;;;10.30;99.90;;;;;;5044104;28;20644;-73
2022/01/04 03:07:36;;;;;;;2.90;1.38;;;10.20;99.90;;;;;;5032628;28;20041;-72
2022/01/04 03:10:04;;;;;;;3.35;1.52;;;10.30;99.90;;;;;;5031294;28;20033;-74
2022/01/04 03:12:30;;;;;;;2.55;1.17;;;10.20;99.90;;;;;;5020231;28;20138;-73
2022/01/04 03:14:56;;;;;;;4.10;1.38;;;10.20;99.90;;;;;;5031275;28;20108;-73
2022/01/04 03:17:22;;;;;;;2.67;1.25;;;10.30;99.90;;;;;;5034657;28;20049;-71
2022/01/04 03:19:48;;;;;;;3.13;1.58;;;10.20;99.90;;;;;;5021406;28;20033;-74
2022/01/04 03:22:13;;;;;;;3.20;1.38;;;10.20;99.90;;;;;;5043712;28;20120;-73
2022/01/04 03:24:39;;;;;;;2.25;1.23;;;10.20;99.90;;;;;;5041954;28;20061;-73
2022/01/04 03:27:05;;;;;;;2.53;1.25;;;10.10;99.90;;;;;;5038495;28;20025;-74
2022/01/04 03:29:30;;;;;;;5.30;1.50;;;10.10;99.90;;;;;;5027996;28;20029;-73
2022/01/04 03:31:57;;;;;;;2.70;1.23;;;10.10;99.90;;;;;;5031474;28;20034;-72
2022/01/04 03:34:24;;;;;;;3.25;1.63;;;10.00;99.90;;;;;;5015104;28;20061;-76
2022/01/04 03:36:51;;;;;;;3.45;1.25;;;10.00;99.90;;;;;;5024222;28;20084;-76
2022/01/04 03:39:16;;;;;;;7.43;1.70;;;9.90;99.90;;;;;;5030451;28;20047;-74
2022/01/04 03:41:44;;;;;;;3.97;1.42;;;9.90;99.90;;;;;;5040041;28;20028;-75
2022/01/04 03:44:14;;;;;;;4.70;1.50;;;9.80;99.90;;;;;;5040969;28;20021;-75
2022/01/04 03:46:39;;;;;;;3.63;1.50;;;9.80;99.90;;;;;;5046260;28;20036;-74
2022/01/04 03:49:05;;;;;;;2.10;1.10;;;9.70;99.90;;;;;;5047263;28;20037;-75
2022/01/04 03:51:31;;;;;;;3.97;1.77;;;9.70;99.90;;;;;;5020377;28;20970;-75
2022/01/04 03:53:57;;;;;;;3.55;1.60;;;9.70;99.90;;;;;;5035297;28;20037;-75
2022/01/04 03:56:23;;;;;;;3.90;1.77;;;9.60;99.90;;;;;;5038012;28;20456;-76
2022/01/04 03:58:49;;;;;;;3.05;1.50;;;9.60;99.90;;;;;;5035182;28;20029;-77
2022/01/04 04:01:15;;;;;;;5.05;1.48;;;9.50;99.90;;;;;;5035554;28;20029;-75
2022/01/04 04:03:40;;;;;;;3.17;1.48;;;9.50;99.90;;;;;;5040886;28;20438;-74
2022/01/04 04:06:06;;;;;;;2.40;1.40;;;9.50;99.90;;;;;;5037239;28;20036;-76
2022/01/04 04:08:32;;;;;;;3.78;1.67;;;9.40;99.90;;;;;;5039784;28;20061;-74
2022/01/04 04:10:57;;;;;;;3.00;1.48;;;9.40;99.90;;;;;;5038440;28;20029;-76
2022/01/04 04:13:23;;;;;;;2.97;1.63;;;9.40;99.90;;;;;;5022595;28;20048;-76
2022/01/04 04:15:49;;;;;;;4.15;1.63;;;9.40;99.90;;;;;;5034507;28;20025;-76
2022/01/04 04:18:16;;;;;;;2.80;1.42;;;9.40;99.90;;;;;;5040120;28;20140;-75
2022/01/04 04:20:42;;;;;;;4.78;1.48;;;9.30;99.90;;;;;;5040574;28;20040;-75
2022/01/04 04:23:08;;;;;;;3.00;1.80;;;9.30;99.90;;;;;;5046240;28;20033;-74
2022/01/04 04:25:34;;;;;;;4.50;1.48;;;9.20;99.90;;;;;;5026997;28;20038;-75
2022/01/04 04:28:00;;;;;;;4.93;1.58;;;9.20;99.90;;;;;;5049617;28;20557;-74
2022/01/04 04:30:26;;;;;;;3.38;1.45;;;9.20;99.90;;;;;;5025888;28;20454;-74
2022/01/04 04:32:51;;;;;;;3.40;1.20;;;9.20;99.90;;;;;;5049229;28;20440;-78
2022/01/04 04:35:17;;;;;;;4.10;1.40;;;9.20;99.90;;;;;;5034276;28;20047;-75
2022/01/04 04:37:43;;;;;;;4.45;1.55;;;9.20;99.90;;;;;;5041657;28;20033;-74
2022/01/04 04:40:10;;;;;;;2.85;1.73;;;9.10;99.90;;;;;;5016368;28;20472;-73
2022/01/04 04:42:36;;;;;;;4.95;2.08;;;9.10;99.90;;;;;;5049964;28;20112;-72
2022/01/04 04:45:04;;;;;;;3.97;1.40;;;9.10;99.90;;;;;;5045327;28;20470;-74
2022/01/04 04:47:30;;;;;;;2.42;1.35;;;9.10;99.90;;;;;;5036969;28;20033;-75
2022/01/04 04:49:55;;;;;;;3.47;1.40;;;9.10;99.90;;;;;;5047362;28;20079;-75
2022/01/04 04:52:21;;;;;;;2.65;1.45;;;9.10;99.90;;;;;;5041286;28;20037;-73
2022/01/04 04:54:48;;;;;;;10.27;2.75;;;9.10;99.90;;;;;;5031051;28;20041;-74
2022/01/04 04:57:13;;;;;;;3.90;1.45;;;9.10;99.90;;;;;;5047844;28;20462;-74
2022/01/04 04:59:39;;;;;;;4.07;1.40;;;9.10;99.90;;;;;;5049119;28;20021;-75
2022/01/04 05:02:07;;;;;;;4.35;1.50;;;9.00;99.90;;;;;;5042567;28;20032;-74
2022/01/04 05:04:36;;;;;;;2.85;1.58;;;9.00;99.90;;;;;;5014808;28;20045;-75
2022/01/04 05:07:02;;;;;;;2.33;1.10;;;9.00;99.90;;;;;;5031777;28;20029;-75
2022/01/04 05:09:28;;;;;;;3.88;1.70;;;9.00;99.90;;;;;;5036917;28;20028;-72
2022/01/04 05:11:54;;;;;;;2.85;1.45;;;9.00;99.90;;;;;;5035611;28;20036;-74
2022/01/04 05:14:20;;;;;;;4.38;1.40;;;9.00;99.90;;;;;;5033808;28;20080;-72
2022/01/04 05:16:45;;;;;;;3.53;2.15;;;9.00;99.90;;;;;;5037373;28;20029;-73
2022/01/04 05:19:11;;;;;;;3.25;1.50;;;9.00;99.90;;;;;;5046448;28;20033;-74
2022/01/04 05:21:37;;;;;;;4.20;1.80;;;9.00;99.90;;;;;;5042714;28;20041;-72
2022/01/04 05:24:03;;;;;;;2.72;1.58;;;9.00;99.90;;;;;;5040164;28;20036;-74
2022/01/04 05:26:29;;;;;;;3.65;1.58;;;9.00;99.90;;;;;;5045719;28;20029;-73
2022/01/04 05:28:55;;;;;;;2.67;1.30;;;9.00;99.90;;;;;;5037037;28;20034;-75
2022/01/04 05:31:20;;;;;;;3.00;1.30;;;9.00;99.90;;;;;;5038290;28;20139;-72
2022/01/04 05:33:46;;;;;;;3.35;1.40;;;9.00;99.90;;;;;;5048354;28;20116;-74
2022/01/04 05:36:12;;;;;;;4.40;1.40;;;9.00;99.90;;;;;;5047808;28;20126;-74
2022/01/04 05:38:37;;;;;;;2.22;1.15;;;9.00;99.90;;;;;;5042200;28;20465;-75
2022/01/04 05:41:03;;;;;;;6.00;1.80;;;9.00;99.90;;;;;;5046547;28;20441;-74
2022/01/04 05:43:28;;;;;;;6.88;1.55;;;8.90;99.90;;;;;;5024355;28;20065;-74
2022/01/04 05:45:54;;;;;;;6.18;1.83;;;8.90;99.90;;;;;;5040469;28;20079;-76
2022/01/04 05:48:21;;;;;;;4.85;1.52;;;8.90;99.90;;;;;;5048018;28;20104;-74
2022/01/04 05:50:47;;;;;;;4.47;1.60;;;8.90;99.90;;;;;;5048858;28;20029;-74
2022/01/04 05:53:13;;;;;;;4.05;1.83;;;8.90;99.90;;;;;;5047973;28;20033;-74
2022/01/04 05:55:40;;;;;;;5.22;1.73;;;8.90;99.90;;;;;;5048069;28;20120;-74
2022/01/04 05:58:05;;;;;;;6.15;1.25;;;8.90;99.90;;;;;;5047577;28;20036;-74
2022/01/04 06:00:31;;;;;;;3.28;1.50;;;8.90;99.90;;;;;;5043225;28;20028;-75
2022/01/04 06:03:00;;;;;;;3.78;1.67;;;8.90;99.90;;;;;;5022545;28;20516;-76
2022/01/04 06:05:29;;;;;;;3.30;1.35;;;8.90;99.90;;;;;;5029270;28;20117;-74
2022/01/04 06:07:55;;;;;;;2.90;1.50;;;8.90;99.90;;;;;;5045666;28;20039;-74
2022/01/04 06:10:22;;;;;;;4.78;1.50;;;8.90;99.90;;;;;;5038968;28;20025;-75
2022/01/04 06:15:17;;;;;;;4.97;1.80;;;8.90;99.90;;;;;;5042842;28;20920;-74
2022/01/04 06:17:46;;;;;;;4.00;1.50;;;8.90;99.90;;;;;;5046094;28;20029;-74
2022/01/04 06:20:15;;;;;;;2.15;1.33;;;8.90;99.90;;;;;;5046892;28;20032;-75
2022/01/04 06:22:41;;;;;;;4.22;1.60;;;8.90;99.90;;;;;;5035999;28;20040;-75
2022/01/04 06:25:11;;;;;;;5.05;1.50;;;9.00;99.90;;;;;;5042228;28;20037;-75
2022/01/04 06:27:40;;;;;;;3.55;1.42;;;8.90;99.90;;;;;;5033333;28;20366;-75
2022/01/04 06:30:06;;;;;;;3.53;1.30;;;8.90;99.90;;;;;;5032917;28;20095;-75
2022/01/04 06:32:32;;;;;;;3.05;1.27;;;9.00;99.90;;;;;;5048295;28;20461;-75
2022/01/04 06:34:57;;;;;;;6.07;1.77;;;9.00;99.90;;;;;;5046489;28;20044;-75
2022/01/04 06:37:23;;;;;;;2.63;1.42;;;9.00;99.90;;;;;;5035919;28;20029;-74
2022/01/04 06:39:49;;;;;;;3.97;1.83;;;9.00;99.90;;;;;;5040504;28;20032;-74
2022/01/04 06:42:14;;;;;;;2.35;1.52;;;9.00;99.90;;;;;;5041033;28;20390;-74
2022/01/04 06:44:43;;;;;;;4.13;1.77;;;9.00;99.90;;;;;;5038078;28;20029;-75
2022/01/04 06:47:10;;;;;;;4.13;1.65;;;9.00;99.90;;;;;;5045901;28;20028;-73
2022/01/04 06:49:37;;;;;;;2.92;1.52;;;9.00;99.90;;;;;;5025945;28;20120;-75
2022/01/04 06:52:03;;;;;;;2.85;1.33;;;9.00;99.90;;;;;;5043756;28;20021;-75
2022/01/04 06:54:29;;;;;;;3.85;1.80;;;9.00;99.90;;;;;;5035467;28;20061;-74
2022/01/04 06:56:55;;;;;;;2.10;1.27;;;9.00;99.90;;;;;;5038868;28;20063;-75
2022/01/04 06:59:21;;;;;;;3.80;1.85;;;9.10;99.90;;;;;;5043728;28;20595;-74
2022/01/04 07:01:46;;;;;;;5.10;1.70;;;9.10;99.90;;;;;;5034756;28;20026;-74
2022/01/04 07:04:12;;;;;;;3.85;1.60;;;9.10;99.90;;;;;;5040981;28;20132;-74
2022/01/04 07:06:38;;;;;;;3.75;1.70;;;9.10;99.90;;;;;;5044893;28;20401;-75
2022/01/04 07:09:06;;;;;;;3.65;1.90;;;9.10;99.90;;;;;;5037618;28;20033;-75
2022/01/04 07:11:32;;;;;;;3.72;1.58;;;9.10;99.90;;;;;;5029904;28;20036;-74
2022/01/04 07:13:58;;;;;;;3.50;1.70;;;9.20;99.90;;;;;;5033534;28;20053;-74
2022/01/04 07:16:24;;;;;;;4.47;1.70;;;9.20;99.90;;;;;;5050716;28;20037;-74
2022/01/04 07:18:49;;;;;;;6.38;1.75;;;9.10;99.90;;;;;;5050814;28;20040;-74
2022/01/04 07:21:16;;;;;;;3.63;1.83;;;9.20;99.90;;;;;;5050779;28;20104;-75
2022/01/04 07:23:43;;;;;;;2.63;1.58;;;9.20;99.90;;;;;;5050906;28;20033;-73
2022/01/04 07:26:14;;;;;;;5.45;1.75;;;9.20;99.90;;;;;;5049059;28;20033;-73
2022/01/04 07:28:49;;;;;;;5.60;1.80;;;9.20;99.90;;;;;;5051751;28;20025;-75
2022/01/04 07:31:15;;;;;;;6.22;2.00;;;9.30;99.90;;;;;;5050004;28;20096;-73
2022/01/04 07:33:42;;;;;;;3.40;1.58;;;9.20;99.90;;;;;;5025936;28;20706;-74
2022/01/04 07:36:08;;;;;;;3.83;1.77;;;9.20;99.90;;;;;;5048692;28;20036;-75
2022/01/04 07:38:38;;;;;;;3.78;1.83;;;9.20;99.90;;;;;;5049260;28;20098;-74
2022/01/04 07:41:04;;;;;;;2.97;1.55;;;9.30;99.90;;;;;;5040026;28;20421;-75
2022/01/04 07:43:32;;;;;;;4.18;2.00;;;9.30;99.90;;;;;;5029653;28;20152;-75
2022/01/04 07:45:57;;;;;;;5.88;2.00;;;9.30;99.90;;;;;;5037211;28;20032;-76
2022/01/04 07:48:23;;;;;;;7.28;1.90;;;9.30;99.90;;;;;;5048285;28;20300;-74
2022/01/04 07:50:50;;;;;;;4.78;1.77;;;9.30;99.90;;;;;;5049679;28;20381;-74
2022/01/04 07:53:16;;;;;;;4.53;1.70;;;9.30;99.90;;;;;;5045765;28;20025;-74
2022/01/04 07:55:42;;;;;;;4.05;2.28;;;9.40;99.90;;;;;;5046700;28;20436;-74
2022/01/04 07:58:08;;;;;;;3.10;1.60;;;9.40;99.90;;;;;;5049580;28;20023;-73
2022/01/04 08:00:33;;;;;;;7.20;2.20;;;9.40;99.90;;;;;;5032690;28;20034;-75
2022/01/04 08:02:59;;;;;;;4.25;2.10;;;9.30;99.90;;;;;;5039137;28;20025;-75
2022/01/04 08:05:25;;;;;;;4.55;2.00;;;9.30;99.90;;;;;;5037582;28;20036;-74
2022/01/04 08:07:51;;;;;;;3.05;1.73;;;9.30;99.90;;;;;;5046415;28;20025;-75
2022/01/04 08:10:18;;;;;;;6.13;2.20;;;9.30;99.90;;;;;;5046194;28;20093;-75
2022/01/04 08:12:44;;;;;;;3.35;1.50;;;9.30;99.90;;;;;;5043703;28;20144;-74
2022/01/04 08:15:10;;;;;;;2.92;1.35;;;9.30;99.90;;;;;;5030712;28;20044;-74
2022/01/04 08:17:36;;;;;;;2.00;1.33;;;9.30;99.90;;;;;;5043299;28;20033;-72
2022/01/04 08:20:04;;;;;;;7.45;2.00;;;9.40;99.90;;;;;;5035818;28;20040;-72
2022/01/04 08:22:34;;;;;;;5.30;1.92;;;9.40;99.90;;;;;;5049259;28;20132;-73
2022/01/04 08:25:02;;;;;;;4.90;1.50;;;9.40;99.90;;;;;;5049673;28;20736;-72
2022/01/04 08:27:28;;;;;;;2.53;1.70;;;9.50;99.90;;;;;;5047899;28;20120;-72
2022/01/04 08:29:54;;;;;;;4.20;2.20;;;9.50;99.90;;;;;;5046106;28;20033;-72
2022/01/04 08:32:19;;;;;;;5.88;2.20;;;9.50;99.90;;;;;;5044173;28;20029;-72
2022/01/04 08:34:46;;;;;;;3.58;1.60;;;9.50;99.90;;;;;;5048527;28;20477;-73
2022/01/04 08:37:11;;;;;;;2.60;1.50;;;9.50;99.90;;;;;;5040592;28;20032;-72
2022/01/04 08:39:37;;;;;;;4.53;1.48;;;9.60;99.90;;;;;;5045032;28;20032;-71
2022/01/04 08:42:03;;;;;;;4.07;1.65;;;9.70;99.90;;;;;;5049189;28;20032;-72
2022/01/04 08:44:30;;;;;;;2.95;1.70;;;9.70;99.90;;;;;;5046600;28;20033;-72
2022/01/04 08:46:55;;;;;;;2.90;1.50;;;9.70;99.90;;;;;;5048821;28;20029;-72
2022/01/04 08:49:21;;;;;;;3.42;1.40;;;9.80;99.90;;;;;;5046889;28;20786;-73
2022/01/04 08:51:47;;;;;;;10.13;1.88;;;9.80;99.90;;;;;;5040268;28;20032;-71
2022/01/04 08:54:14;;;;;;;5.43;1.50;;;9.80;99.90;;;;;;5040181;28;20041;-72
2022/01/04 08:56:40;;;;;;;2.97;1.50;;;9.90;99.90;;;;;;5030225;28;20029;-72
2022/01/04 08:59:08;;;;;;;3.17;1.50;;;9.90;99.90;;;;;;5041677;28;20466;-73
2022/01/04 09:01:35;;;;;;;2.55;1.38;;;10.00;99.90;;;;;;5048594;28;20025;-72
2022/01/04 09:04:01;;;;;;;2.42;1.10;;;10.10;99.90;;;;;;5047706;28;20041;-72
2022/01/04 09:06:28;;;;;;;3.45;1.42;;;10.10;99.90;;;;;;5047144;28;20044;-72
2022/01/04 09:08:55;;;;;;;2.60;1.38;;;10.20;99.90;;;;;;5032896;28;20462;-72
2022/01/04 09:11:22;;;;;;;3.40;1.33;;;10.20;99.90;;;;;;5015710;28;20036;-71
2022/01/04 09:13:50;;;;;;;4.65;1.48;;;10.30;99.90;;;;;;5049252;28;20119;-71
2022/01/04 09:18:43;;;;;;;2.13;1.13;;;10.40;99.90;;;;;;5048669;28;20122;-71
2022/01/04 09:21:10;;;;;;;3.75;0.90;;;10.40;99.90;;;;;;5031153;28;20492;-70
2022/01/04 09:23:37;;;;;;;4.43;1.13;;;10.40;99.90;;;;;;5048902;28;20031;-71
2022/01/04 09:26:03;;;;;;;2.38;1.02;;;10.50;99.90;;;;;;5048908;28;20037;-72
2022/01/04 09:28:29;;;;;;;3.83;1.30;;;10.50;99.90;;;;;;5048283;28;20053;-71
2022/01/04 09:30:55;;;;;;;2.00;1.02;;;10.50;99.90;;;;;;5031286;28;20508;-72
2022/01/04 09:33:21;;;;;;;3.25;1.30;;;10.60;99.90;;;;;;5034939;28;20037;-72
2022/01/04 09:35:49;;;;;;;4.22;1.30;;;10.60;99.90;;;;;;5030375;28;20030;-71
2022/01/04 09:38:15;;;;;;;1.85;1.00;;;10.60;99.90;;;;;;5048428;28;20033;-71
2022/01/04 09:40:41;;;;;;;4.65;1.38;;;10.60;99.90;;;;;;5046427;28;20041;-72
2022/01/04 09:43:07;;;;;;;3.00;1.20;;;10.70;99.90;;;;;;5037102;28;20052;-72
2022/01/04 09:45:34;;;;;;;2.35;1.00;;;10.70;99.90;;;;;;5048462;28;20033;-70
2022/01/04 09:48:00;;;;;;;1.77;1.00;;;10.70;99.90;;;;;;5036427;28;20025;-72
2022/01/04 09:50:26;;;;;;;3.33;0.98;;;10.80;99.90;;;;;;5048378;28;20110;-71
2022/01/04 09:52:54;;;;;;;1.35;0.75;;;10.80;99.90;;;;;;5048001;28;20033;-71
2022/01/04 09:55:20;;;;;;;2.55;0.80;;;10.90;99.90;;;;;;5047118;28;20036;-72
2022/01/04 09:57:47;;;;;;;3.95;1.05;;;10.80;99.90;;;;;;5048522;28;20041;-71
2022/01/04 10:00:15;;;;;;;2.75;1.10;;;10.90;99.90;;;;;;5041060;28;20036;-72
2022/01/04 10:02:47;;;;;;;3.50;1.10;;;10.90;99.90;;;;;;5029127;28;20025;-71
2022/01/04 10:05:29;;;;;;;2.58;1.00;;;10.90;99.90;;;;;;5028693;28;20061;-71
2022/01/04 10:08:04;;;;;;;2.83;1.10;;;10.90;99.90;;;;;;5043911;28;20030;-71
2022/01/04 10:10:29;;;;;;;3.00;1.52;;;10.90;99.90;;;;;;5040889;28;20017;-72
2022/01/04 10:12:59;;;;;;;3.65;1.25;;;10.90;99.90;;;;;;5038044;28;20068;-72
2022/01/04 10:15:33;;;;;;;2.15;1.17;;;11.00;99.90;;;;;;5034411;28;20129;-72
2022/01/04 10:18:21;;;;;;;4.00;1.10;;;11.10;99.90;;;;;;5045032;28;20497;-72
2022/01/04 10:21:02;;;;;;;2.50;1.13;;;11.10;99.90;;;;;;5049934;28;20040;-71
2022/01/04 10:23:28;;;;;;;4.40;1.23;;;11.10;99.90;;;;;;5051335;28;20025;-71
2022/01/04 10:26:05;;;;;;;2.65;1.08;;;11.10;99.90;;;;;;5014860;28;20148;-72
2022/01/04 10:28:39;;;;;;;1.95;0.90;;;11.10;99.90;;;;;;5014312;28;20037;-71
2022/01/04 10:31:10;;;;;;;2.85;0.95;;;11.10;99.90;;;;;;5041740;28;20037;-72
2022/01/04 10:33:36;;;;;;;3.03;1.27;;;11.20;99.90;;;;;;5031562;28;20034;-71
2022/01/04 10:36:19;;;;;;;2.40;1.25;;;11.20;99.90;;;;;;5049141;28;20029;-71
2022/01/04 10:38:46;;;;;;;7.00;1.40;;;11.30;99.90;;;;;;5049999;28;20045;-71
2022/01/04 10:41:21;;;;;;;3.22;1.08;;;11.30;99.90;;;;;;5038805;28;20075;-72
2022/01/04 10:43:55;;;;;;;2.38;0.73;;;11.40;99.90;;;;;;5032408;28;20041;-72
2022/01/04 10:46:38;;;;;;;2.85;1.15;;;11.40;99.90;;;;;;5035815;28;20103;-71
2022/01/04 10:49:24;;;;;;;2.17;0.93;;;11.50;99.90;;;;;;5046179;28;20028;-71
2022/01/04 10:52:12;;;;;;;1.95;0.85;;;11.50;99.90;;;;;;5036533;28;20652;-72
2022/01/04 10:54:38;;;;;;;1.40;0.70;;;11.60;99.90;;;;;;5034254;28;20796;-70
2022/01/04 10:57:09;;;;;;;3.90;1.13;;;11.60;99.90;;;;;;5045719;28;20048;-70
2022/01/04 10:59:35;;;;;;;;;;;11.60;99.90;;;;;;5019496;28;20026;-70
2022/01/04 11:02:00;;;;;;;2.83;1.10;;;11.50;99.90;;;;;;5044170;28;19917;-70
2022/01/04 11:04:26;;;;;;;4.38;1.20;;;11.40;99.90;;;;;;5033430;28;20060;-70
2022/01/04 11:06:59;;;;;;;2.38;1.13;;;11.50;99.90;;;;;;5036399;28;20033;-71
2022/01/04 11:09:24;;;;;;;2.55;1.20;;;11.50;99.90;;;;;;5044087;28;20028;-70
2022/01/04 11:11:50;;;;;;;3.13;0.95;;;11.50;99.90;;;;;;5037657;28;20033;-71
2022/01/04 11:14:16;;;;;;;2.92;1.20;;;11.50;99.90;;;;;;5046425;28;20842;-71
2022/01/04 11:16:42;;;;;;;2.65;1.02;;;11.50;99.90;;;;;;5042101;28;20041;-70
2022/01/04 11:19:09;;;;;;;4.80;1.27;;;11.50;99.90;;;;;;5040857;28;20034;-70
2022/01/04 11:21:37;;;;;;;3.85;1.38;;;11.50;99.90;;;;;;5032916;28;20033;-70
2022/01/04 11:24:07;;;;;;;4.88;1.27;;;11.40;99.90;;;;;;5045176;28;20105;-70
2022/01/04 11:26:33;;;;;;;4.68;1.60;;;11.40;99.90;;;;;;5043269;28;20044;-71
2022/01/04 11:28:59;;;;;;;4.68;1.30;;;11.40;99.90;;;;;;5041952;28;20025;-72
2022/01/04 11:31:50;;;;;;;2.53;1.20;;;11.40;99.90;;;;;;5043161;28;20508;-71
2022/01/04 11:34:26;;;;;;;3.85;1.23;;;11.40;99.90;;;;;;5041122;28;20419;-70
2022/01/04 11:36:52;;;;;;;3.83;1.40;;;11.30;99.90;;;;;;5041721;28;20747;-71
2022/01/04 11:39:31;;;;;;;2.70;1.20;;;11.30;99.90;;;;;;5044429;28;20060;-71
2022/01/04 11:42:06;;;;;;;2.30;1.15;;;11.40;99.90;;;;;;5042858;28;20033;-71
2022/01/04 11:44:33;;;;;;;3.33;1.20;;;11.40;99.90;;;;;;5043340;28;20036;-71
2022/01/04 11:46:58;;;;;;;3.88;1.45;;;11.40;99.90;;;;;;5035346;28;20540;-70
2022/01/04 11:49:24;;;;;;;4.60;1.20;;;11.40;99.90;;;;;;5044575;28;20048;-66
2022/01/04 11:51:50;;;;;;;2.53;1.15;;;11.50;99.90;;;;;;5045161;28;20407;-72
2022/01/04 11:54:28;;;;;;;7.07;1.42;;;11.60;99.90;;;;;;5031196;28;20138;-71
2022/01/04 11:57:01;;;;;;;3.38;1.63;;;11.60;99.90;;;;;;5032717;28;20033;-72
2022/01/04 11:59:31;;;;;;;3.40;1.45;;;11.40;99.90;;;;;;5013210;28;20038;-71
2022/01/04 12:02:17;;;;;;;2.90;1.50;;;11.50;99.90;;;;;;5048295;28;20478;-72
2022/01/04 12:04:47;;;;;;;4.72;1.70;;;11.50;99.90;;;;;;5037086;28;20044;-72
2022/01/04 12:07:41;;;;;;;4.07;1.60;;;11.40;99.90;;;;;;5035338;28;20480;-72
2022/01/04 12:10:22;;;;;;;3.47;1.35;;;11.50;99.90;;;;;;5034386;28;20388;-73
2022/01/04 12:13:23;;;;;;;3.95;1.63;;;11.50;99.90;;;;;;5032684;28;20802;-72
2022/01/04 12:16:05;;;;;;;4.35;1.58;;;11.40;99.90;;;;;;5039590;28;20053;-72
2022/01/04 12:18:34;;;;;;;6.22;1.65;;;11.40;99.90;;;;;;5034638;28;20075;-72
2022/01/04 12:21:02;;;;;;;5.18;1.60;;;11.40;99.90;;;;;;5045087;28;20552;-74
2022/01/04 12:23:35;;;;;;;4.78;1.55;;;11.40;99.90;;;;;;5013206;28;20065;-75
2022/01/04 12:26:12;;;;;;;4.88;1.33;;;11.30;99.90;;;;;;5022331;28;20040;-76
2022/01/04 12:28:42;;;;;;;4.00;1.58;;;11.40;99.90;;;;;;5012036;28;20368;-72
2022/01/04 12:31:16;;;;;;;5.55;1.45;;;11.40;99.90;;;;;;5023233;28;20028;-73
2022/01/04 12:33:53;;;;;;;3.28;1.52;;;11.30;99.90;;;;;;4995489;28;20992;-71
2022/01/04 12:36:33;;;;;;;2.60;1.42;;;11.30;99.90;;;;;;5012901;28;20169;-72
2022/01/04 12:39:10;;;;;;;5.75;1.80;;;11.20;99.90;;;;;;5013782;28;20052;-72
2022/01/04 12:41:38;;;;;;;4.07;1.52;;;11.20;99.90;;;;;;5004921;28;20034;-72
2022/01/04 12:44:05;;;;;;;3.17;1.60;;;11.20;99.90;;;;;;5011370;28;20036;-73
2022/01/04 12:46:45;;;;;;;4.68;1.48;;;11.10;99.90;;;;;;5011714;28;20140;-71
2022/01/04 12:49:17;;;;;;;4.18;1.45;;;11.10;99.90;;;;;;5024549;28;20138;-72
2022/01/04 12:51:48;;;;;;;4.97;1.83;;;11.10;99.90;;;;;;4992633;28;20127;-73
2022/01/04 12:54:16;;;;;;;3.17;1.65;;;11.10;99.90;;;;;;5019882;28;20025;-71
2022/01/04 12:56:50;;;;;;;4.05;1.58;;;11.20;99.90;;;;;;5015927;28;20127;-73
2022/01/04 12:59:21;;;;;;;4.75;2.00;;;11.10;99.90;;;;;;5026892;28;20033;-73
2022/01/04 13:01:49;;;;;;;3.95;1.80;;;11.10;99.90;;;;;;5011399;28;20057;-71
2022/01/04 13:04:23;;;;;;;3.75;2.08;;;11.10;99.90;;;;;;5025215;28;20382;-73
2022/01/04 13:06:49;;;;;;;3.97;1.77;;;11.10;99.90;;;;;;5016548;28;20056;-72
2022/01/04 13:09:25;;;;;;;4.30;1.70;;;11.20;99.90;;;;;;5010267;28;20033;-72